Time;durP1;ratioP1;P1;durP2;ratioP2;P2;SDS_P1;SDS_P2;PMS_P1;PMS_P2;Temp;Humidity;BMP_temperature;BMP_pressure;BME280_temperature;BME280_humidity;BME280_pressure;Samples;Min_cycle;Max_cycle;Signal;HPM_P1;HPM_P2
2022/09/14 00:01:17;;;;;;;10.18;7.28;;;384.10;2329.60;;;;;;5081652;28;20036;-80
2022/09/14 00:03:43;;;;;;;10.13;6.50;;;384.10;2329.60;;;;;;5082291;28;20029;-80
2022/09/14 00:06:14;;;;;;;9.82;6.95;;;384.00;2329.60;;;;;;5086487;28;20043;-80
2022/09/14 00:08:41;;;;;;;13.70;7.68;;;359.20;2329.60;;;;;;5067118;28;20024;-80
2022/09/14 00:11:10;;;;;;;12.85;7.72;;;384.00;2329.60;;;;;;5059076;28;20821;-80
2022/09/14 00:13:37;;;;;;;11.55;7.72;;;359.10;2329.60;;;;;;5065789;28;20051;-80
2022/09/14 00:16:11;;;;;;;9.88;7.38;;;359.20;2329.60;;;;;;5065435;28;20031;-80
2022/09/14 00:18:36;;;;;;;13.23;7.82;;;359.10;2329.60;;;;;;5063909;28;20039;-81
2022/09/14 00:21:06;;;;;;;10.38;7.75;;;359.00;2329.60;;;;;;5066220;28;20685;-81
2022/09/14 00:23:34;;;;;;;14.65;8.32;;;359.10;2329.60;;;;;;5082500;28;20069;-80
2022/09/14 00:26:13;;;;;;;12.13;9.05;;;359.20;2329.60;;;;;;5059945;28;20044;-81
2022/09/14 00:28:44;;;;;;;13.38;9.48;;;359.30;2329.60;;;;;;5061443;28;20078;-81
2022/09/14 00:31:10;;;;;;;13.43;8.43;;;359.30;2329.60;;;;;;5083362;28;20028;-82
2022/09/14 00:33:37;;;;;;;11.88;9.23;;;359.30;2329.60;;;;;;5066231;28;20132;-81
2022/09/14 00:36:07;;;;;;;11.90;8.35;;;384.00;2329.60;;;;;;5083107;28;20102;-81
2022/09/14 00:38:34;;;;;;;12.98;8.18;;;359.30;2329.60;;;;;;5061958;28;20032;-82
2022/09/14 00:41:01;;;;;;;15.00;7.95;;;384.00;2329.60;;;;;;5060457;28;20040;-79
2022/09/14 00:43:27;;;;;;;13.95;7.60;;;384.00;2329.60;;;;;;5065482;28;20082;-81
2022/09/14 00:45:53;;;;;;;18.48;9.18;;;384.00;2329.60;;;;;;5062056;28;20040;-80
2022/09/14 00:48:21;;;;;;;13.48;9.55;;;359.10;2329.60;;;;;;5059575;28;20115;-82
2022/09/14 00:50:47;;;;;;;12.70;8.55;;;359.20;2329.60;;;;;;5063222;28;20035;-82
2022/09/14 00:53:13;;;;;;;14.75;8.32;;;359.20;2329.60;;;;;;5094499;28;20029;-83
2022/09/14 00:55:39;;;;;;;16.42;9.25;;;359.10;2329.60;;;;;;5059927;28;20036;-81
2022/09/14 00:58:04;;;;;;;13.25;8.05;;;359.00;2329.60;;;;;;5059863;28;20048;-80
2022/09/14 01:00:30;;;;;;;14.40;8.75;;;359.00;2329.60;;;;;;5064352;28;20024;-81
2022/09/14 01:02:56;;;;;;;11.85;8.05;;;359.00;2329.60;;;;;;5060090;28;20024;-81
2022/09/14 01:05:50;;;;;;;10.45;7.47;;;358.80;2329.60;;;;;;5095830;28;20048;-81
2022/09/14 01:08:39;;;;;;;9.40;7.80;;;359.00;2329.60;;;;;;5068261;28;20111;-79
2022/09/14 01:11:10;;;;;;;10.38;7.30;;;359.00;2329.60;;;;;;5064024;28;20649;-80
2022/09/14 01:13:48;;;;;;;9.82;7.50;;;359.00;2329.60;;;;;;5063925;28;20085;-81
2022/09/14 01:16:19;;;;;;;10.15;8.50;;;359.00;2329.60;;;;;;5058638;28;20039;-81
2022/09/14 01:18:49;;;;;;;11.00;7.90;;;359.00;2329.60;;;;;;5061000;28;20036;-82
2022/09/14 01:21:22;;;;;;;11.18;7.93;;;359.00;2329.60;;;;;;5060188;28;20040;-79
2022/09/14 01:23:48;;;;;;;14.07;7.88;;;358.70;2329.60;;;;;;5079464;28;20065;-81
2022/09/14 01:26:29;;;;;;;11.38;8.38;;;;;;;;;;5058068;28;20475;-80
2022/09/14 01:29:02;;;;;;;13.52;7.85;;;;;;;;;;5062354;28;20020;-79
2022/09/14 01:31:28;;;;;;;;;;;;;;;;;;5068481;28;20041;-79
2022/09/14 01:34:00;;;;;;;15.65;8.18;;;;;;;;;;5095227;28;19904;-80
2022/09/14 01:36:28;;;;;;;12.75;8.45;;;;;;;;;;5075054;28;20028;-80
2022/09/14 01:38:55;;;;;;;9.45;7.22;;;;;;;;;;5069840;28;20389;-81
2022/09/14 01:41:23;;;;;;;10.63;7.70;;;;;;;;;;5098598;28;20062;-82
2022/09/14 01:43:54;;;;;;;11.18;8.07;;;;;;;;;;5093797;28;20031;-81
2022/09/14 01:46:24;;;;;;;11.25;8.07;;;;;;;;;;5070150;28;20024;-79
2022/09/14 01:48:55;;;;;;;10.20;7.93;;;;;;;;;;5075503;28;20024;-81
2022/09/14 01:51:51;;;;;;;14.25;8.50;;;;;;;;;;5098646;28;20039;-81
2022/09/14 01:54:43;;;;;;;11.88;7.50;;;;;;;;;;5052232;28;20039;-82
2022/09/14 01:57:13;;;;;;;11.88;8.48;;;;;;;;;;5060355;28;20040;-83
2022/09/14 01:59:42;;;;;;;12.93;8.93;;;;;;;;;;5064928;28;20427;-82
2022/09/14 02:02:35;;;;;;;10.75;7.70;;;;;;;;;;5062794;28;20017;-80
2022/09/14 02:05:02;;;;;;;13.60;8.55;;;;;;;;;;5071655;28;20102;-82
2022/09/14 02:07:28;;;;;;;10.18;7.90;;;;;;;;;;5061928;28;20028;-82
2022/09/14 02:09:54;;;;;;;11.15;8.38;;;;;;;;;;5079717;28;20024;-80
2022/09/14 02:12:21;;;;;;;11.25;8.35;;;;;;;;;;5069457;28;20055;-82
2022/09/14 02:14:48;;;;;;;16.98;8.50;;;;;;;;;;5067395;28;20035;-82
2022/09/14 02:17:14;;;;;;;11.90;8.60;;;;;;;;;;5095637;28;20474;-79
2022/09/14 02:19:42;;;;;;;8.63;7.28;;;;;;;;;;5062609;28;20039;-81
2022/09/14 02:22:08;;;;;;;9.48;7.43;;;;;;;;;;5096699;28;20020;-80
2022/09/14 02:24:34;;;;;;;11.35;7.80;;;;;;;;;;5077791;28;20393;-82
2022/09/14 02:27:01;;;;;;;14.60;7.28;;;;;;;;;;5090463;28;20036;-81
2022/09/14 02:29:27;;;;;;;10.82;7.25;;;358.60;2329.60;;;;;;5066287;28;20416;-82
2022/09/14 02:32:08;;;;;;;9.75;7.10;;;358.50;2329.60;;;;;;5098703;28;20024;-81
2022/09/14 02:34:52;;;;;;;8.18;6.35;;;358.60;2329.60;;;;;;5057680;28;20037;-82
2022/09/14 02:37:20;;;;;;;9.68;6.18;;;;;;;;;;5061430;28;20090;-81
2022/09/14 02:40:05;;;;;;;9.48;6.75;;;;;;;;;;5091150;28;20513;-81
2022/09/14 02:42:55;;;;;;;9.55;6.70;;;;;;;;;;5090338;28;20032;-80
2022/09/14 02:45:21;;;;;;;8.00;6.78;;;;;;;;;;5083281;28;20028;-80
2022/09/14 02:47:56;;;;;;;10.55;7.18;;;;;;;;;;5070597;28;20020;-81
2022/09/14 02:50:41;;;;;;;8.65;6.93;;;;;;;;;;5075078;28;20461;-80
2022/09/14 02:53:12;;;;;;;12.13;7.72;;;;;;;;;;5097058;28;20036;-82
2022/09/14 02:55:41;;;;;;;9.48;7.40;;;;;;;;;;5065866;28;20477;-81
2022/09/14 02:58:09;;;;;;;10.77;8.10;;;;;;;;;;5071179;28;20024;-80
2022/09/14 03:00:37;;;;;;;9.32;7.88;;;;;;;;;;5077934;28;20089;-79
2022/09/14 03:03:04;;;;;;;8.63;7.22;;;;;;;;;;5081932;28;20031;-80
2022/09/14 03:05:29;;;;;;;12.90;8.20;;;333.70;2329.60;;;;;;5064770;28;20083;-80
2022/09/14 03:07:56;;;;;;;11.57;8.32;;;;;;;;;;5064173;28;20485;-81
2022/09/14 03:10:22;;;;;;;11.85;7.10;;;;;;;;;;5098272;28;20583;-80
2022/09/14 03:12:48;;;;;;;9.25;7.40;;;;;;;;;;5064628;28;20052;-80
2022/09/14 03:15:14;;;;;;;10.70;7.85;;;;;;;;;;5064946;28;20078;-81
2022/09/14 03:17:44;;;;;;;11.30;6.88;;;;;;;;;;5097254;28;20020;-80
2022/09/14 03:20:11;;;;;;;11.82;6.07;;;;;;;;;;5070261;28;20058;-80
2022/09/14 03:22:36;;;;;;;9.50;6.68;;;333.30;2329.60;;;;;;5081746;28;20024;-80
2022/09/14 03:25:02;;;;;;;8.95;6.60;;;333.10;2329.60;;;;;;5086750;28;20550;-80
2022/09/14 03:27:28;;;;;;;9.40;7.07;;;333.20;2329.60;;;;;;5065035;28;20028;-81
2022/09/14 03:29:54;;;;;;;12.52;7.57;;;333.20;2329.60;;;;;;5068695;28;20024;-79
2022/09/14 03:32:19;;;;;;;9.80;7.13;;;332.90;2329.60;;;;;;5079495;28;20099;-80
2022/09/14 03:34:45;;;;;;;10.73;7.80;;;333.00;2329.60;;;;;;5060800;28;20157;-80
2022/09/14 03:37:11;;;;;;;9.40;7.68;;;333.00;2329.60;;;;;;5064210;28;20032;-80
2022/09/14 03:39:37;;;;;;;14.05;7.40;;;332.80;2329.60;;;;;;5087606;28;20488;-80
2022/09/14 03:42:04;;;;;;;13.10;7.10;;;308.10;2304.00;;;;;;5065535;28;20068;-80
2022/09/14 03:44:29;;;;;;;10.90;7.20;;;333.00;2329.60;;;;;;5083399;28;20101;-81
2022/09/14 03:46:55;;;;;;;9.23;7.43;;;333.20;2329.60;;;;;;5063569;28;20143;-80
2022/09/14 03:49:21;;;;;;;14.48;8.82;;;333.20;2329.60;;;;;;5071964;28;20028;-80
2022/09/14 03:51:47;;;;;;;11.82;8.07;;;333.20;2329.60;;;;;;5065220;28;20024;-80
2022/09/14 03:54:12;;;;;;;12.57;7.13;;;332.90;2329.60;;;;;;5081732;28;20107;-82
2022/09/14 03:56:39;;;;;;;11.10;7.63;;;333.00;2329.60;;;;;;5061867;28;20145;-80
2022/09/14 03:59:08;;;;;;;13.07;7.75;;;333.00;2329.60;;;;;;5075891;28;20024;-79
2022/09/14 04:01:34;;;;;;;10.85;6.78;;;332.90;2329.60;;;;;;5068767;28;20034;-81
2022/09/14 04:03:59;;;;;;;13.02;7.78;;;332.80;2329.60;;;;;;5083557;28;20441;-80
2022/09/14 04:06:25;;;;;;;14.35;9.35;;;308.10;2304.00;;;;;;5060617;28;20097;-82
2022/09/14 04:08:51;;;;;;;12.15;9.10;;;308.00;2304.00;;;;;;5063531;28;20661;-81
2022/09/14 04:11:22;;;;;;;13.75;9.07;;;308.00;2304.00;;;;;;5066209;28;20028;-80
2022/09/14 04:13:48;;;;;;;14.73;9.32;;;308.10;2304.00;;;;;;5065700;28;20457;-81
2022/09/14 04:16:15;;;;;;;17.13;8.48;;;308.10;2304.00;;;;;;5081346;28;20027;-80
2022/09/14 04:18:41;;;;;;;10.32;9.00;;;333.00;2329.60;;;;;;5065498;28;20021;-80
2022/09/14 04:21:16;;;;;;;11.80;8.57;;;333.00;2329.60;;;;;;5067929;28;20036;-81
2022/09/14 04:23:42;;;;;;;14.38;8.10;;;333.10;2329.60;;;;;;5065096;28;20123;-82
2022/09/14 04:26:14;;;;;;;16.10;8.45;;;333.10;2329.60;;;;;;5066475;28;20034;-81
2022/09/14 04:28:39;;;;;;;13.65;8.73;;;333.20;2329.60;;;;;;5067752;28;20025;-80
2022/09/14 04:31:06;;;;;;;10.75;7.88;;;333.20;2329.60;;;;;;5082261;28;20054;-81
2022/09/14 04:33:33;;;;;;;10.15;8.27;;;333.20;2329.60;;;;;;5061650;28;20098;-81
2022/09/14 04:36:08;;;;;;;13.98;8.73;;;333.20;2329.60;;;;;;5066472;28;20036;-81
2022/09/14 04:38:35;;;;;;;11.80;8.80;;;333.10;2329.60;;;;;;5056173;28;20119;-81
2022/09/14 04:41:05;;;;;;;15.00;8.93;;;333.10;2329.60;;;;;;5062115;28;20052;-81
2022/09/14 04:43:31;;;;;;;14.27;8.65;;;333.20;2329.60;;;;;;5063996;28;20024;-81
2022/09/14 04:46:15;;;;;;;15.57;7.90;;;333.00;2329.60;;;;;;5064092;28;20085;-78
2022/09/14 04:48:41;;;;;;;12.50;8.77;;;332.80;2329.60;;;;;;5055822;28;20029;-82
2022/09/14 04:51:15;;;;;;;13.98;8.75;;;333.00;2329.60;;;;;;5077936;28;20450;-81
2022/09/14 04:53:41;;;;;;;14.30;8.43;;;333.00;2329.60;;;;;;5057897;28;20078;-81
2022/09/14 04:56:09;;;;;;;15.05;9.15;;;333.50;2329.60;;;;;;5067543;28;20130;-81
2022/09/14 04:58:38;;;;;;;12.55;9.32;;;333.00;2329.60;;;;;;5058181;28;20082;-79
2022/09/14 05:01:09;;;;;;;15.23;9.27;;;332.90;2329.60;;;;;;5059773;28;20052;-80
2022/09/14 05:03:39;;;;;;;16.58;10.00;;;333.00;2329.60;;;;;;5075847;28;20035;-80
2022/09/14 05:06:09;;;;;;;15.60;9.80;;;333.20;2329.60;;;;;;5080219;28;20409;-81
2022/09/14 05:08:37;;;;;;;13.60;9.85;;;333.20;2329.60;;;;;;5070395;28;20032;-80
2022/09/14 05:11:04;;;;;;;19.63;9.70;;;333.30;2329.60;;;;;;5075098;28;20039;-79
2022/09/14 05:13:29;;;;;;;15.02;10.18;;;333.50;2329.60;;;;;;5059519;28;20131;-80
2022/09/14 05:16:04;;;;;;;14.63;9.60;;;333.40;2329.60;;;;;;5091664;28;20117;-80
2022/09/14 05:18:30;;;;;;;20.52;10.35;;;333.50;2329.60;;;;;;5060682;28;20032;-80
2022/09/14 05:20:59;;;;;;;21.45;10.25;;;333.70;2329.60;;;;;;5076920;28;20020;-80
2022/09/14 05:23:25;;;;;;;18.35;11.60;;;358.40;2329.60;;;;;;5059088;28;20461;-80
2022/09/14 05:25:53;;;;;;;24.45;13.38;;;358.40;2329.60;;;;;;5062006;28;20111;-80
2022/09/14 05:28:19;;;;;;;16.05;13.00;;;358.40;2329.60;;;;;;5063882;28;20028;-80
2022/09/14 05:30:45;;;;;;;17.00;12.40;;;333.70;2329.60;;;;;;5063367;28;20033;-81
2022/09/14 05:33:11;;;;;;;19.85;12.23;;;333.60;2329.60;;;;;;5092491;28;20027;-81
2022/09/14 05:35:37;;;;;;;18.35;12.05;;;333.60;2329.60;;;;;;5096174;28;20032;-81
2022/09/14 05:38:03;;;;;;;17.23;11.93;;;333.60;2329.60;;;;;;5098694;28;20391;-80
2022/09/14 05:40:28;;;;;;;14.55;10.80;;;333.60;2329.60;;;;;;5059840;28;20044;-80
2022/09/14 05:42:54;;;;;;;26.55;13.10;;;358.40;2329.60;;;;;;5085148;28;20027;-79
2022/09/14 05:45:20;;;;;;;20.92;12.52;;;358.40;2329.60;;;;;;5096374;28;20036;-81
2022/09/14 05:47:46;;;;;;;21.65;12.95;;;333.70;2329.60;;;;;;5065896;28;20029;-79
2022/09/14 05:50:13;;;;;;;19.25;13.35;;;333.60;2329.60;;;;;;5098701;28;20028;-80
2022/09/14 05:52:39;;;;;;;20.20;13.07;;;333.60;2329.60;;;;;;5064364;28;20035;-80
2022/09/14 05:55:05;;;;;;;18.23;11.90;;;333.70;2329.60;;;;;;5072002;28;20043;-79
2022/09/14 05:57:32;;;;;;;18.70;11.20;;;358.50;2329.60;;;;;;5065918;28;20474;-81
2022/09/14 05:59:57;;;;;;;15.88;10.85;;;358.50;2329.60;;;;;;5064034;28;20036;-80
2022/09/14 06:02:23;;;;;;;20.23;12.25;;;358.50;2329.60;;;;;;5059701;28;20066;-78
2022/09/14 06:04:49;;;;;;;16.15;10.25;;;358.40;2329.60;;;;;;5066039;28;20027;-79
2022/09/14 06:07:15;;;;;;;17.42;10.88;;;358.50;2329.60;;;;;;5089185;28;20036;-80
2022/09/14 06:09:41;;;;;;;14.30;10.18;;;358.50;2329.60;;;;;;5063760;28;20021;-78
2022/09/14 06:12:07;;;;;;;19.20;10.15;;;358.60;2329.60;;;;;;5059480;28;20399;-80
2022/09/14 06:14:33;;;;;;;17.52;10.88;;;358.60;2329.60;;;;;;5059391;28;20028;-81
2022/09/14 06:16:59;;;;;;;14.90;10.52;;;358.70;2329.60;;;;;;5078741;28;20028;-80
2022/09/14 06:19:25;;;;;;;15.48;10.15;;;358.80;2329.60;;;;;;5060817;28;20590;-81
2022/09/14 06:21:51;;;;;;;20.75;10.65;;;358.80;2329.60;;;;;;5059799;28;20023;-80
2022/09/14 06:24:17;;;;;;;13.23;9.77;;;359.10;2329.60;;;;;;5094108;28;20016;-80
2022/09/14 06:26:43;;;;;;;14.75;11.30;;;359.10;2329.60;;;;;;5094445;28;20036;-79
2022/09/14 06:29:09;;;;;;;12.60;9.25;;;359.30;2329.60;;;;;;5059886;28;20030;-79
2022/09/14 06:31:34;;;;;;;16.98;10.48;;;359.30;2329.60;;;;;;5058234;28;20036;-79
2022/09/14 06:34:01;;;;;;;13.43;10.18;;;359.30;2329.60;;;;;;5059435;28;20355;-79
2022/09/14 06:36:27;;;;;;;15.40;9.77;;;359.30;2329.60;;;;;;5062256;28;20490;-80
2022/09/14 06:38:54;;;;;;;16.63;10.07;;;384.20;2329.60;;;;;;5061313;28;20077;-81
2022/09/14 06:41:27;;;;;;;17.50;9.25;;;384.40;2329.60;;;;;;5056457;28;20044;-80
2022/09/14 06:43:58;;;;;;;15.30;9.10;;;384.60;2329.60;;;;;;5062557;28;20115;-80
2022/09/14 06:46:27;;;;;;;14.02;8.93;;;384.80;2329.60;;;;;;5058236;28;20121;-80
2022/09/14 06:48:59;;;;;;;21.75;10.35;;;409.60;2355.20;;;;;;5060884;28;20036;-81
2022/09/14 06:51:28;;;;;;;17.20;9.38;;;409.70;2355.20;;;;;;5091604;28;20021;-81
2022/09/14 06:53:56;;;;;;;13.20;8.70;;;409.80;2355.20;;;;;;5077482;28;20033;-81
2022/09/14 06:56:22;;;;;;;10.80;8.05;;;409.80;2355.20;;;;;;5075015;28;20037;-80
2022/09/14 06:58:48;;;;;;;16.38;7.90;;;409.90;2355.20;;;;;;5091848;28;20055;-81
2022/09/14 07:01:16;;;;;;;17.58;8.73;;;410.00;2355.20;;;;;;5059183;28;20032;-80
2022/09/14 07:03:43;;;;;;;17.88;8.55;;;410.00;2355.20;;;;;;5058837;28;20036;-80
2022/09/14 07:06:14;;;;;;;13.98;8.30;;;410.30;2355.20;;;;;;5059946;28;20036;-81
2022/09/14 07:08:41;;;;;;;11.48;7.25;;;410.30;2355.20;;;;;;5066039;28;20039;-81
2022/09/14 07:11:09;;;;;;;11.43;7.05;;;410.30;2355.20;;;;;;5064217;28;20169;-79
2022/09/14 07:13:35;;;;;;;10.20;7.75;;;410.50;2355.20;;;;;;5060333;28;20067;-81
2022/09/14 07:16:02;;;;;;;11.02;6.72;;;410.50;2355.20;;;;;;5059152;28;20121;-80
2022/09/14 07:18:31;;;;;;;17.67;8.60;;;410.50;2355.20;;;;;;5080439;28;20020;-80
2022/09/14 07:21:06;;;;;;;16.08;8.50;;;435.20;2355.20;;;;;;5064697;28;20031;-81
2022/09/14 07:23:34;;;;;;;10.10;6.75;;;435.40;2355.20;;;;;;5078228;28;20020;-81
2022/09/14 07:26:06;;;;;;;15.13;8.40;;;435.40;2355.20;;;;;;5056525;28;20036;-80
2022/09/14 07:28:33;;;;;;;11.40;7.90;;;435.50;2355.20;;;;;;5066660;28;20028;-81
2022/09/14 07:30:59;;;;;;;11.88;8.68;;;435.50;2355.20;;;;;;5065442;28;20032;-81
2022/09/14 07:33:25;;;;;;;12.07;8.52;;;435.60;2355.20;;;;;;5060624;28;20492;-81
2022/09/14 07:35:51;;;;;;;15.38;7.82;;;435.80;2355.20;;;;;;5084759;28;20032;-81
2022/09/14 07:38:18;;;;;;;11.75;7.80;;;435.90;2355.20;;;;;;5085453;28;20031;-81
2022/09/14 07:40:44;;;;;;;9.82;7.50;;;410.50;2355.20;;;;;;5065663;28;20497;-81
2022/09/14 07:43:10;;;;;;;11.95;7.85;;;436.10;2355.20;;;;;;5060041;28;20028;-81
2022/09/14 07:45:37;;;;;;;12.50;7.78;;;460.80;2380.80;;;;;;5067276;28;20045;-82
2022/09/14 07:48:04;;;;;;;13.90;7.93;;;461.00;2380.80;;;;;;5065370;28;20067;-82
2022/09/14 07:50:30;;;;;;;12.73;6.90;;;461.20;2380.80;;;;;;5066120;28;20054;-81
2022/09/14 07:52:56;;;;;;;10.65;7.32;;;461.20;2380.80;;;;;;5077508;28;20030;-80
2022/09/14 07:55:22;;;;;;;12.95;6.35;;;461.30;2380.80;;;;;;5075844;28;20469;-80
2022/09/14 07:57:48;;;;;;;12.52;7.80;;;461.40;2380.80;;;;;;5066640;28;20115;-81
2022/09/14 08:00:15;;;;;;;11.95;6.93;;;461.50;2380.80;;;;;;5066120;28;20024;-82
2022/09/14 08:02:41;;;;;;;11.57;6.40;;;461.50;2380.80;;;;;;5083041;28;20099;-81
2022/09/14 08:05:07;;;;;;;9.57;6.60;;;461.70;2380.80;;;;;;5064045;28;20027;-81
2022/09/14 08:07:33;;;;;;;8.75;5.03;;;486.40;2380.80;;;;;;5065396;28;20032;-83
2022/09/14 08:10:00;;;;;;;9.65;6.57;;;486.50;2380.80;;;;;;5064174;28;20042;-82
2022/09/14 08:12:26;;;;;;;9.20;4.97;;;486.50;2380.80;;;;;;5067172;28;20036;-81
2022/09/14 08:14:52;;;;;;;8.18;5.22;;;486.60;2380.80;;;;;;5066276;28;20028;-82
2022/09/14 08:17:21;;;;;;;13.02;8.95;;;486.70;2380.80;;;;;;5073545;28;20389;-80
2022/09/14 08:19:47;;;;;;;9.80;6.38;;;486.80;2380.80;;;;;;5064486;28;20028;-81
2022/09/14 08:22:13;;;;;;;12.70;6.75;;;486.90;2380.80;;;;;;5063694;28;20482;-80
2022/09/14 08:24:39;;;;;;;10.10;6.97;;;487.10;2380.80;;;;;;5065499;28;20098;-81
2022/09/14 08:27:05;;;;;;;11.13;5.78;;;487.20;2380.80;;;;;;5059581;28;20035;-83
2022/09/14 08:29:31;;;;;;;9.52;6.20;;;487.30;2380.80;;;;;;5063116;28;20058;-80
2022/09/14 08:31:57;;;;;;;12.77;6.10;;;512.20;2380.80;;;;;;5063046;28;20056;-79
2022/09/14 08:34:23;;;;;;;10.32;6.25;;;512.30;2380.80;;;;;;5076883;28;20028;-81
2022/09/14 08:36:49;;;;;;;10.23;6.55;;;512.40;2380.80;;;;;;5061061;28;20037;-81
2022/09/14 08:39:16;;;;;;;9.43;6.43;;;512.30;2380.80;;;;;;5078312;28;20021;-81
2022/09/14 08:41:55;;;;;;;9.43;6.18;;;512.40;2380.80;;;;;;5058649;28;20126;-82
2022/09/14 08:44:37;;;;;;;9.10;6.60;;;512.60;2380.80;;;;;;5077084;28;20029;-80
2022/09/14 08:47:15;;;;;;;10.98;7.95;;;512.60;2380.80;;;;;;5055215;28;20462;-79
2022/09/14 08:49:53;;;;;;;9.77;6.32;;;512.80;2380.80;;;;;;5057673;28;20044;-78
2022/09/14 08:52:30;;;;;;;7.82;6.40;;;512.90;2380.80;;;;;;5052987;28;20689;-80
2022/09/14 08:55:01;;;;;;;9.93;6.10;;;537.70;2406.40;;;;;;5060409;28;20866;-81
2022/09/14 08:57:37;;;;;;;11.32;5.82;;;537.70;2406.40;;;;;;5069769;28;20520;-80
2022/09/14 09:00:15;;;;;;;8.63;5.85;;;537.60;2406.40;;;;;;5069920;28;20116;-81
2022/09/14 09:03:19;;;;;;;8.27;5.38;;;537.60;2406.40;;;;;;5070952;28;20024;-81
2022/09/14 09:05:53;;;;;;;9.70;4.57;;;537.90;2406.40;;;;;;5039095;28;20130;-77
2022/09/14 09:08:28;;;;;;;10.82;5.63;;;537.90;2406.40;;;;;;5067185;28;20021;-78
2022/09/14 09:10:57;;;;;;;7.97;4.68;;;538.20;2406.40;;;;;;5060150;28;20040;-79
2022/09/14 09:13:27;;;;;;;6.28;4.53;;;538.00;2406.40;;;;;;5076490;28;20100;-77
2022/09/14 09:15:58;;;;;;;7.63;4.63;;;538.20;2406.40;;;;;;5075944;28;20047;-78
2022/09/14 09:18:47;;;;;;;9.35;5.18;;;538.20;2406.40;;;;;;5060082;28;20500;-79
2022/09/14 09:21:25;;;;;;;7.72;5.18;;;538.40;2406.40;;;;;;5064294;28;20105;-78
2022/09/14 09:23:55;;;;;;;7.68;6.10;;;538.50;2406.40;;;;;;5072120;28;20475;-79
2022/09/14 09:44:10;;;;;;;8.75;4.38;;;563.40;2432.00;;;;;;5065079;27;20399;-83
2022/09/14 09:46:47;;;;;;;6.50;4.88;;;589.10;2432.00;;;;;;5102411;28;20017;-83
2022/09/14 09:49:22;;;;;;;13.35;8.93;;;589.20;2432.00;;;;;;5067755;28;20104;-83
2022/09/14 09:51:49;;;;;;;10.57;7.47;;;589.20;2432.00;;;;;;5103252;28;20047;-83
2022/09/14 09:54:15;;;;;;;7.45;4.95;;;589.20;2432.00;;;;;;5100450;28;20029;-84
2022/09/14 09:56:57;;;;;;;8.93;5.35;;;589.20;2432.00;;;;;;5103320;28;20029;-84
2022/09/14 09:59:36;;;;;;;18.23;9.82;;;589.20;2432.00;;;;;;5064489;28;20033;-83
2022/09/14 10:02:20;;;;;;;14.13;7.88;;;589.20;2432.00;;;;;;5080203;28;20382;-82
2022/09/14 10:05:01;;;;;;;8.23;6.60;;;589.40;2432.00;;;;;;5049444;28;20021;-83
2022/09/14 10:07:29;;;;;;;7.43;4.63;;;589.70;2432.00;;;;;;5048041;28;20079;-82
2022/09/14 10:10:02;;;;;;;10.68;6.82;;;589.60;2432.00;;;;;;5049164;28;20323;-83
2022/09/14 10:12:28;;;;;;;8.70;7.10;;;589.70;2432.00;;;;;;5049209;28;20022;-83
2022/09/14 10:15:16;;;;;;;8.68;4.30;;;614.50;2432.00;;;;;;5082469;28;20036;-85
2022/09/14 10:18:08;;;;;;;9.85;5.57;;;614.60;2432.00;;;;;;5049423;28;20036;-85
2022/09/14 10:20:39;;;;;;;7.35;5.05;;;614.80;2432.00;;;;;;5082785;28;20029;-82
2022/09/14 10:23:17;;;;;;;12.52;5.53;;;615.00;2432.00;;;;;;5048995;28;20033;-83
2022/09/14 10:25:51;;;;;;;6.85;5.07;;;615.10;2432.00;;;;;;5082536;28;20025;-84
2022/09/14 10:28:28;;;;;;;6.82;4.30;;;640.00;2432.00;;;;;;5050406;28;20033;-84
2022/09/14 10:31:06;;;;;;;9.40;6.63;;;640.20;2432.00;;;;;;5049109;28;20025;-83
2022/09/14 10:33:34;;;;;;;12.55;6.03;;;640.40;2406.40;;;;;;5048926;28;20040;-83
2022/09/14 10:36:24;;;;;;;14.90;8.90;;;640.60;2380.80;;;;;;5048663;28;20040;-83
2022/09/14 10:38:57;;;;;;;11.23;8.90;;;640.90;2380.80;;;;;;5082445;28;20032;-83
2022/09/14 10:41:42;;;;;;;7.50;5.18;;;640.90;2355.20;;;;;;5049089;28;20417;-85
2022/09/14 10:44:25;;;;;;;10.30;8.80;;;640.90;2355.20;;;;;;5038884;28;20049;-85
2022/09/14 10:47:16;;;;;;;9.45;6.20;;;665.60;2380.80;;;;;;5066857;28;20032;-84
2022/09/14 10:49:51;;;;;;;13.82;7.75;;;665.80;2380.80;;;;;;5034308;28;20439;-82
2022/09/14 10:52:32;;;;;;;10.93;6.13;;;666.00;2329.60;;;;;;5036314;28;20044;-83
2022/09/14 10:55:04;;;;;;;8.75;5.32;;;666.20;2278.40;;;;;;5035381;28;20032;-83
2022/09/14 10:57:58;;;;;;;19.40;10.70;;;666.50;2304.00;;;;;;5036678;28;20360;-83
2022/09/14 11:00:25;;;;;;;11.90;7.47;;;691.60;2252.80;;;;;;5029487;28;20489;-81
2022/09/14 11:03:13;;;;;;;12.35;8.48;;;691.70;2227.20;;;;;;5038829;28;20029;-83
2022/09/14 11:05:55;;;;;;;6.90;4.15;;;691.90;2201.60;;;;;;5049664;28;20040;-82
2022/09/14 11:08:27;;;;;;;;;;;716.80;2201.60;;;;;;5030504;28;20097;-82
2022/09/14 11:11:11;;;;;;;20.83;12.50;;;716.80;2201.60;;;;;;5051287;28;20354;-81
2022/09/14 11:13:46;;;;;;;10.95;7.43;;;717.10;2201.60;;;;;;5034366;28;20367;-81
2022/09/14 11:16:37;;;;;;;8.85;5.13;;;717.20;2150.40;;;;;;5034683;28;20029;-80
2022/09/14 11:19:23;;;;;;;10.98;6.97;;;717.40;2176.00;;;;;;5051314;28;20026;-81
2022/09/14 11:21:58;;;;;;;14.18;6.55;;;717.50;2201.60;;;;;;5068070;28;20033;-79
2022/09/14 11:24:53;;;;;;;8.15;5.47;;;717.60;2124.80;;;;;;5034632;28;20053;-81
2022/09/14 11:27:56;;;;;;;11.35;6.68;;;742.50;2124.80;;;;;;5034570;28;20171;-84
2022/09/14 11:30:27;;;;;;;12.32;5.57;;;742.60;2099.20;;;;;;5031655;28;20493;-83
2022/09/14 11:33:06;;;;;;;7.65;4.93;;;742.70;2073.60;;;;;;5013659;28;20049;-81
2022/09/14 11:35:35;;;;;;;9.55;5.20;;;742.40;2048.00;;;;;;5027034;28;20036;-81
2022/09/14 11:38:09;;;;;;;12.50;5.88;;;742.60;2048.00;;;;;;5034387;28;20120;-80
2022/09/14 11:40:46;;;;;;;10.38;5.50;;;742.90;2048.00;;;;;;5033505;28;20025;-82
2022/09/14 11:43:44;;;;;;;11.13;4.55;;;743.10;2048.00;;;;;;5033908;28;20065;-82
2022/09/14 11:46:15;;;;;;;7.68;4.95;;;768.10;2048.00;;;;;;5033360;28;20055;-82
2022/09/14 11:48:48;;;;;;;12.10;6.80;;;768.30;1996.80;;;;;;5034181;28;20021;-82
2022/09/14 11:51:24;;;;;;;8.68;4.03;;;768.60;1996.80;;;;;;5068168;28;20049;-82
2022/09/14 11:53:49;;;;;;;6.63;4.72;;;768.60;1971.20;;;;;;5013578;28;20406;-82
2022/09/14 11:56:25;;;;;;;9.10;5.05;;;793.60;1996.80;;;;;;5011899;28;20033;-81
2022/09/14 11:58:59;;;;;;;10.77;3.80;;;793.70;1945.60;;;;;;5031516;28;20030;-82
2022/09/14 12:01:30;;;;;;;11.73;5.30;;;793.70;1894.40;;;;;;5027200;28;20032;-84
2022/09/14 12:03:58;;;;;;;5.88;3.40;;;793.90;1920.00;;;;;;5032386;28;20172;-83
2022/09/14 12:06:30;;;;;;;10.38;4.40;;;793.90;1868.80;;;;;;5033507;28;20034;-81
2022/09/14 12:09:16;;;;;;;;;;;794.00;1868.80;;;;;;5034079;28;20471;-82
2022/09/14 12:11:43;;;;;;;13.35;10.05;;;793.90;1868.80;;;;;;5026422;28;19925;-82
2022/09/14 12:14:28;;;;;;;17.02;14.15;;;794.00;1894.40;;;;;;5030933;28;20037;-83
2022/09/14 12:17:15;;;;;;;20.92;14.93;;;794.30;1868.80;;;;;;5029553;28;20033;-83
2022/09/14 12:19:44;;;;;;;8.27;4.53;;;794.40;1843.20;;;;;;5034649;28;20413;-84
2022/09/14 12:22:30;;;;;;;8.20;5.28;;;794.00;1817.60;;;;;;5034226;28;20082;-86
2022/09/14 12:25:08;;;;;;;9.05;5.65;;;794.40;1817.60;;;;;;5067587;28;20470;-84
2022/09/14 12:27:39;;;;;;;8.77;4.13;;;794.50;1843.20;;;;;;5066295;28;20061;-83
2022/09/14 12:30:34;;;;;;;15.18;5.75;;;819.40;1817.60;;;;;;5032939;28;20458;-83
2022/09/14 12:33:00;;;;;;;12.65;4.18;;;;;;;;;;5068627;28;20040;-82
2022/09/14 12:35:38;;;;;;;13.00;4.82;;;;;;;;;;5052907;28;20041;-84
2022/09/14 12:38:49;;;;;;;8.00;3.80;;;820.00;1817.60;;;;;;5043139;28;20036;-83
2022/09/14 12:41:18;;;;;;;8.07;3.25;;;819.90;1792.00;;;;;;5013767;28;20028;-85
2022/09/14 12:43:53;;;;;;;14.65;4.90;;;844.90;1792.00;;;;;;5027134;28;20057;-84
2022/09/14 12:46:19;;;;;;;9.23;4.10;;;844.90;1792.00;;;;;;5012738;28;20113;-83
2022/09/14 12:48:47;;;;;;;6.65;3.70;;;844.90;1740.80;;;;;;5045924;28;20061;-85
2022/09/14 12:54:18;;;;;;;6.97;3.25;;;820.10;1715.20;;;;;;5014764;28;20121;-85
2022/09/14 12:57:02;;;;;;;12.38;7.25;;;819.90;1740.80;;;;;;5045907;28;20076;-82
2022/09/14 12:59:49;;;;;;;12.13;5.68;;;844.90;1766.40;;;;;;5046346;28;20026;-86
2022/09/14 13:02:53;;;;;;;7.47;3.40;;;845.20;1740.80;;;;;;5013126;28;20026;-84
2022/09/14 13:05:23;;;;;;;6.32;3.10;;;;;;;;;;5014374;28;20048;-84
2022/09/14 13:07:49;;;;;;;6.13;3.38;;;;;;;;;;5014247;28;20034;-84
2022/09/14 13:10:22;;;;;;;6.78;4.05;;;;;;;;;;5014064;28;20048;-84
2022/09/14 13:12:48;;;;;;;8.18;3.78;;;;;;;;;;5013013;28;20033;-85